ESND

Sveg Airport

Sweden
METAR ESND 221920Z 20004KT 150V260 CAVOK 24/12 Q1005
Observed Flight Rules
Jul-22 @ 19:20 UTC (30 minutes ago) Visual Flight Rules
Wind Visibility Clouds
200° at 4 knots 10,000+ meters
  • Clear skies
Temperatures Readings
Current 24°C / 75°F
Dewpoint 12°C / 54°F
Humidity 47%
Altimeter 29.68" Hg
Pressure 1005 hPa
Elevation 359
METAR ESND 221920Z 20004KT 150V260 CAVOK 24/12 Q1005
Observed Flight Rules
Jul-22 @ 19:20 UTC
(30 minutes ago)
VFR
Wind Visibility
200° at 4 knots 10,000+ meters
Clouds
  • Clear skies
Temperature Dewpoint
24°C / 75°F 12°C / 54°F
Humidity Altimeter Pressure
47% 29.68" Hg 1005 hPa